createdAt,value
2024-01-25T00:00:48.560Z,100.00
2024-01-25T00:03:37.264Z,100.00
2024-01-25T00:06:09.420Z,100.00
2024-01-25T00:08:37.600Z,100.00
2024-01-25T00:11:06.359Z,100.00
2024-01-25T00:13:34.483Z,100.00
2024-01-25T00:16:02.664Z,100.00
2024-01-25T00:18:31.262Z,100.00
2024-01-25T00:20:59.445Z,100.00
2024-01-25T00:23:27.783Z,100.00
2024-01-25T00:25:59.429Z,100.00
2024-01-25T00:28:29.552Z,100.00
2024-01-25T00:30:57.837Z,100.00
2024-01-25T00:33:26.185Z,100.00
2024-01-25T00:35:54.784Z,100.00
2024-01-25T00:38:23.276Z,100.00
2024-01-25T00:40:51.643Z,100.00
2024-01-25T00:43:20.210Z,100.00
2024-01-25T00:45:48.769Z,100.00
2024-01-25T00:48:17.306Z,100.00
2024-01-25T00:50:45.751Z,100.00
2024-01-25T00:53:14.137Z,100.00
2024-01-25T00:55:42.802Z,100.00
2024-01-25T00:58:11.272Z,100.00
2024-01-25T01:00:39.813Z,100.00
2024-01-25T01:03:08.998Z,100.00
2024-01-25T01:05:37.625Z,100.00
2024-01-25T01:08:06.652Z,100.00
2024-01-25T01:10:34.989Z,100.00
2024-01-25T01:13:03.317Z,100.00
2024-01-25T01:15:31.603Z,100.00
2024-01-25T01:17:59.779Z,100.00
2024-01-25T01:20:28.244Z,100.00
2024-01-25T01:22:56.341Z,100.00
2024-01-25T01:25:24.552Z,100.00
2024-01-25T01:27:52.785Z,100.00
2024-01-25T01:30:21.885Z,100.00
2024-01-25T01:32:50.006Z,100.00
2024-01-25T01:35:19.073Z,100.00
2024-01-25T01:37:47.144Z,100.00
2024-01-25T01:40:15.294Z,100.00
2024-01-25T01:42:43.383Z,100.00
2024-01-25T01:45:14.190Z,100.00
2024-01-25T01:47:43.094Z,100.00
2024-01-25T01:50:11.671Z,100.00
2024-01-25T01:52:40.800Z,100.00
2024-01-25T01:55:09.663Z,100.00
2024-01-25T01:57:38.486Z,100.00
2024-01-25T02:00:10.438Z,100.00
2024-01-25T02:02:41.604Z,100.00
2024-01-25T02:05:10.324Z,100.00
2024-01-25T02:07:41.715Z,100.00
2024-01-25T02:10:10.698Z,100.00
2024-01-25T02:12:39.393Z,100.00
2024-01-25T02:15:08.754Z,100.00
2024-01-25T02:17:37.970Z,100.00
2024-01-25T02:20:07.255Z,100.00
2024-01-25T02:22:35.479Z,100.00
2024-01-25T02:25:03.863Z,100.00
2024-01-25T02:27:32.221Z,100.00
2024-01-25T02:30:00.287Z,100.00
2024-01-25T02:32:28.492Z,100.00
2024-01-25T02:34:56.639Z,100.00
2024-01-25T02:37:25.084Z,100.00
2024-01-25T02:39:54.519Z,100.00
2024-01-25T02:42:22.643Z,100.00
2024-01-25T02:44:50.876Z,100.00
2024-01-25T02:47:20.254Z,100.00
2024-01-25T02:49:48.532Z,100.00
2024-01-25T02:52:17.357Z,100.00
2024-01-25T02:54:45.527Z,100.00
2024-01-25T02:57:13.854Z,100.00
2024-01-25T02:59:41.991Z,100.00
2024-01-25T03:02:10.335Z,100.00
2024-01-25T03:04:38.668Z,100.00
2024-01-25T03:07:07.664Z,100.00
2024-01-25T03:09:35.914Z,100.00
2024-01-25T03:12:04.115Z,100.00
2024-01-25T03:14:32.153Z,100.00
2024-01-25T03:17:00.229Z,100.00
2024-01-25T03:19:29.030Z,100.00
2024-01-25T03:21:57.383Z,100.00
2024-01-25T03:24:25.808Z,100.00
2024-01-25T03:26:53.843Z,100.00
2024-01-25T03:29:21.959Z,100.00
2024-01-25T03:31:51.192Z,100.00
2024-01-25T03:34:19.905Z,100.00
2024-01-25T03:36:48.198Z,100.00
2024-01-25T03:39:16.415Z,100.00
2024-01-25T03:41:44.461Z,100.00
2024-01-25T03:44:13.169Z,100.00
2024-01-25T03:46:41.357Z,100.00
2024-01-25T03:49:09.640Z,100.00
2024-01-25T03:51:38.398Z,100.00
2024-01-25T03:54:06.544Z,100.00
2024-01-25T03:56:34.605Z,100.00
2024-01-25T03:59:02.653Z,100.00
2024-01-25T04:01:32.178Z,100.00
2024-01-25T04:04:00.936Z,100.00
2024-01-25T04:06:29.710Z,100.00
2024-01-25T04:08:57.828Z,100.00
2024-01-25T04:11:28.299Z,100.00
2024-01-25T04:13:57.225Z,100.00
2024-01-25T04:16:26.021Z,100.00
2024-01-25T04:18:54.361Z,100.00
2024-01-25T04:21:22.632Z,100.00
2024-01-25T04:23:50.731Z,100.00
2024-01-25T04:26:18.862Z,100.00
2024-01-25T04:28:47.257Z,100.00
2024-01-25T04:31:15.457Z,100.00
2024-01-25T04:33:47.098Z,100.00
2024-01-25T04:36:17.162Z,100.00
2024-01-25T04:38:45.470Z,100.00
2024-01-25T04:41:13.481Z,100.00
2024-01-25T04:43:41.537Z,100.00
2024-01-25T04:46:10.492Z,100.00
2024-01-25T04:48:38.856Z,100.00
2024-01-25T04:51:08.082Z,100.00
2024-01-25T04:53:37.046Z,100.00
2024-01-25T04:56:05.350Z,100.00
2024-01-25T04:58:33.378Z,100.00
2024-01-25T05:01:01.596Z,100.00
2024-01-25T05:03:29.948Z,100.00
2024-01-25T05:05:58.150Z,100.00
2024-01-25T05:08:26.324Z,100.00
2024-01-25T05:10:54.362Z,100.00
2024-01-25T05:13:22.424Z,100.00
2024-01-25T05:15:50.608Z,100.00
2024-01-25T05:18:19.252Z,100.00
2024-01-25T05:20:47.501Z,100.00
2024-01-25T05:23:15.604Z,100.00
2024-01-25T05:25:43.671Z,100.00
2024-01-25T05:28:11.874Z,100.00
2024-01-25T05:30:40.579Z,100.00
2024-01-25T05:33:08.909Z,100.00
2024-01-25T05:35:37.561Z,100.00
2024-01-25T05:38:05.810Z,100.00
2024-01-25T05:40:34.063Z,100.00
2024-01-25T05:43:02.153Z,100.00
2024-01-25T05:45:30.257Z,100.00
2024-01-25T05:47:58.508Z,100.00
2024-01-25T05:50:26.980Z,100.00
2024-01-25T05:52:55.243Z,100.00
2024-01-25T05:55:23.333Z,100.00
2024-01-25T05:57:51.382Z,100.00
2024-01-25T06:00:21.876Z,100.00
2024-01-25T06:02:50.376Z,100.00
2024-01-25T06:05:20.440Z,100.00
2024-01-25T06:07:51.262Z,100.00
2024-01-25T06:10:19.539Z,100.00
2024-01-25T06:12:47.899Z,100.00
2024-01-25T06:15:16.353Z,100.00
2024-01-25T06:17:44.442Z,100.00
2024-01-25T06:20:13.262Z,100.00
2024-01-25T06:22:41.445Z,100.00
2024-01-25T06:25:10.291Z,100.00
2024-01-25T06:27:38.647Z,100.00
2024-01-25T06:30:07.785Z,100.00
2024-01-25T06:32:36.123Z,100.00
2024-01-25T06:35:05.822Z,100.00
2024-01-25T06:37:34.354Z,100.00
2024-01-25T06:40:02.739Z,100.00
2024-01-25T06:42:30.918Z,100.00
2024-01-25T06:44:59.095Z,100.00
2024-01-25T06:47:27.150Z,100.00
2024-01-25T06:49:55.290Z,100.00
2024-01-25T06:52:23.994Z,100.00
2024-01-25T06:54:52.288Z,100.00
2024-01-25T06:57:21.069Z,100.00
2024-01-25T06:59:49.191Z,100.00
2024-01-25T07:02:18.564Z,100.00
2024-01-25T07:04:47.338Z,100.00
2024-01-25T07:07:15.802Z,100.00
2024-01-25T07:09:43.989Z,100.00
2024-01-25T07:12:12.313Z,100.00
2024-01-25T07:14:40.498Z,100.00
2024-01-25T07:17:08.497Z,100.00
2024-01-25T07:19:36.667Z,100.00
2024-01-25T07:22:04.981Z,100.00
2024-01-25T07:24:33.170Z,100.00
2024-01-25T07:27:01.372Z,100.00
2024-01-25T07:29:30.264Z,100.00
2024-01-25T07:31:58.348Z,100.00
2024-01-25T07:34:26.527Z,100.00
2024-01-25T07:36:54.728Z,100.00
2024-01-25T07:39:22.898Z,100.00
2024-01-25T07:41:50.915Z,100.00
2024-01-25T07:44:20.586Z,100.00
2024-01-25T07:46:48.622Z,100.00
2024-01-25T07:49:16.792Z,100.00
2024-01-25T07:51:45.121Z,100.00
2024-01-25T07:54:14.817Z,98.09
2024-01-25T07:56:42.957Z,96.62
2024-01-25T07:59:11.492Z,94.25
2024-01-25T08:01:39.902Z,94.07
2024-01-25T08:04:08.286Z,93.01
2024-01-25T08:06:36.518Z,91.13
2024-01-25T08:09:04.817Z,88.91
2024-01-25T08:11:32.953Z,86.93
2024-01-25T08:14:01.128Z,85.54
2024-01-25T08:16:29.502Z,84.97
2024-01-25T08:18:57.915Z,85.06
2024-01-25T08:21:26.316Z,83.75
2024-01-25T08:23:54.836Z,82.55
2024-01-25T08:26:22.978Z,82.92
2024-01-25T08:28:51.014Z,82.78
2024-01-25T08:31:19.203Z,83.63
2024-01-25T08:33:49.146Z,82.10
2024-01-25T08:36:20.900Z,81.27
2024-01-25T08:38:48.978Z,81.48
2024-01-25T08:41:17.675Z,80.99
2024-01-25T08:43:46.218Z,80.50
2024-01-25T08:46:17.365Z,80.85
2024-01-25T08:48:45.848Z,81.46
2024-01-25T08:51:14.368Z,80.89
2024-01-25T08:53:42.519Z,81.68
2024-01-25T08:56:11.007Z,81.72
2024-01-25T08:58:39.165Z,81.53
2024-01-25T09:01:07.466Z,82.09
2024-01-25T09:03:35.840Z,81.37
2024-01-25T09:06:07.164Z,81.49
2024-01-25T09:08:35.837Z,81.78
2024-01-25T09:11:04.159Z,81.92
2024-01-25T09:13:33.986Z,81.67
2024-01-25T09:16:13.250Z,81.33
2024-01-25T09:18:41.497Z,81.68
2024-01-25T09:21:09.721Z,81.88
2024-01-25T09:23:37.834Z,81.88
2024-01-25T09:26:08.037Z,82.28
2024-01-25T09:28:36.329Z,82.12
2024-01-25T09:31:05.263Z,82.60
2024-01-25T09:33:36.755Z,82.73
2024-01-25T09:36:05.384Z,82.61
2024-01-25T09:38:33.788Z,82.32
2024-01-25T09:41:02.500Z,82.16
2024-01-25T09:43:31.969Z,81.55
2024-01-25T09:46:02.625Z,81.84
2024-01-25T09:48:31.423Z,81.70
2024-01-25T09:51:01.646Z,82.35
2024-01-25T09:53:34.740Z,81.88
2024-01-25T09:56:10.278Z,82.73
2024-01-25T09:58:44.258Z,82.54
2024-01-25T10:01:16.837Z,82.59
2024-01-25T10:03:49.153Z,82.26
2024-01-25T10:06:20.387Z,80.58
2024-01-25T10:08:48.679Z,80.42
2024-01-25T10:11:17.860Z,80.10
2024-01-25T10:13:47.545Z,79.29
2024-01-25T10:16:17.603Z,77.99
2024-01-25T10:18:49.053Z,78.55
2024-01-25T10:21:21.205Z,78.60
2024-01-25T10:23:50.148Z,78.58
2024-01-25T10:26:19.705Z,77.68
2024-01-25T10:28:56.792Z,77.41
2024-01-25T10:31:30.474Z,76.84
2024-01-25T10:33:59.083Z,76.04
2024-01-25T10:36:28.907Z,75.23
2024-01-25T10:38:59.546Z,75.43
2024-01-25T10:41:29.354Z,74.54
2024-01-25T10:43:57.911Z,74.58
2024-01-25T10:46:26.924Z,75.08
2024-01-25T10:48:58.724Z,75.59
2024-01-25T10:51:29.297Z,74.72
2024-01-25T10:53:59.622Z,72.67
2024-01-25T10:56:27.902Z,72.57
2024-01-25T10:58:56.262Z,71.71
2024-01-25T11:01:25.654Z,71.24
2024-01-25T11:03:55.354Z,71.86
2024-01-25T11:06:24.536Z,72.76
2024-01-25T11:08:52.940Z,72.35
2024-01-25T11:11:21.288Z,71.78
2024-01-25T11:13:51.516Z,71.84
2024-01-25T11:16:31.021Z,71.49
2024-01-25T11:19:06.792Z,71.29
2024-01-25T11:21:42.651Z,71.19
2024-01-25T11:24:17.935Z,70.54
2024-01-25T11:26:47.631Z,69.85
2024-01-25T11:29:21.456Z,69.24
2024-01-25T11:31:51.823Z,68.56
2024-01-25T11:34:20.278Z,66.78
2024-01-25T11:36:49.646Z,64.88
2024-01-25T11:39:20.313Z,64.46
2024-01-25T11:41:50.003Z,63.47
2024-01-25T11:44:19.368Z,61.27
2024-01-25T11:46:47.498Z,59.44
2024-01-25T11:49:15.832Z,57.37
2024-01-25T11:51:44.191Z,56.41
2024-01-25T11:54:12.620Z,55.00
2024-01-25T11:56:43.258Z,54.53
2024-01-25T11:59:12.624Z,54.20
2024-01-25T12:01:42.550Z,54.16
2024-01-25T12:04:11.320Z,52.99
2024-01-25T12:06:40.039Z,53.17
2024-01-25T12:09:13.757Z,51.57
2024-01-25T12:11:43.193Z,50.37
2024-01-25T12:14:11.485Z,50.61
2024-01-25T12:16:40.591Z,50.97
2024-01-25T12:19:09.253Z,50.38
2024-01-25T12:21:38.306Z,49.34
2024-01-25T12:24:09.482Z,48.70
2024-01-25T12:26:39.144Z,48.86
2024-01-25T12:29:09.292Z,48.88
2024-01-25T12:31:37.709Z,48.90
2024-01-25T12:34:16.288Z,50.00
2024-01-25T12:36:44.670Z,49.89
2024-01-25T12:39:16.776Z,50.54
2024-01-25T12:41:48.413Z,50.92
2024-01-25T12:44:17.182Z,51.66
2024-01-25T12:46:45.414Z,52.38
2024-01-25T12:49:13.852Z,53.16
2024-01-25T12:51:42.225Z,53.76
2024-01-25T12:54:11.074Z,54.55
2024-01-25T12:56:39.293Z,55.09
2024-01-25T12:59:07.825Z,55.34
2024-01-25T13:01:36.277Z,56.02
2024-01-25T13:04:05.047Z,56.04
2024-01-25T13:06:33.278Z,56.12
2024-01-25T13:09:01.580Z,56.99
2024-01-25T13:11:29.651Z,58.01
2024-01-25T13:13:57.841Z,58.39
2024-01-25T13:16:25.886Z,59.17
2024-01-25T13:18:54.057Z,59.74
2024-01-25T13:21:22.162Z,60.41
2024-01-25T13:23:50.201Z,61.02
2024-01-25T13:26:18.308Z,61.55
2024-01-25T13:28:46.497Z,61.84
2024-01-25T13:31:14.522Z,62.25
2024-01-25T13:33:46.212Z,63.07
2024-01-25T13:36:15.974Z,63.63
2024-01-25T13:38:44.294Z,64.11
2024-01-25T13:41:12.506Z,64.39
2024-01-25T13:43:40.647Z,65.19
2024-01-25T13:46:08.778Z,65.50
2024-01-25T13:48:36.849Z,66.22
2024-01-25T13:51:05.195Z,66.77
2024-01-25T13:53:33.517Z,67.06
2024-01-25T13:56:01.933Z,67.53
2024-01-25T13:58:30.110Z,68.44
2024-01-25T14:00:58.307Z,68.90
2024-01-25T14:03:26.734Z,69.98
2024-01-25T14:05:57.769Z,70.30
2024-01-25T14:08:26.085Z,70.77
2024-01-25T14:10:54.189Z,71.28
2024-01-25T14:13:22.283Z,71.27
2024-01-25T14:15:50.557Z,71.47
2024-01-25T14:18:19.221Z,71.79
2024-01-25T14:20:47.906Z,72.23
2024-01-25T14:23:16.455Z,73.32
2024-01-25T14:25:46.725Z,74.24
2024-01-25T14:28:15.169Z,75.48
2024-01-25T14:30:44.359Z,76.42
2024-01-25T14:33:12.639Z,78.18
2024-01-25T14:35:41.071Z,79.47
2024-01-25T14:38:09.741Z,80.45
2024-01-25T14:40:52.933Z,80.65
2024-01-25T14:43:26.108Z,81.74
2024-01-25T14:45:54.512Z,82.12
2024-01-25T14:48:23.126Z,81.50
2024-01-25T14:50:51.426Z,81.08
2024-01-25T14:53:20.200Z,81.13
2024-01-25T14:55:48.328Z,82.35
2024-01-25T14:58:23.450Z,82.23
2024-01-25T15:00:53.311Z,82.99
2024-01-25T15:03:21.871Z,83.19
2024-01-25T15:05:51.030Z,83.36
2024-01-25T15:08:19.333Z,84.69
2024-01-25T15:10:47.434Z,85.17
2024-01-25T15:13:15.573Z,85.45
2024-01-25T15:15:45.646Z,86.17
2024-01-25T15:18:14.163Z,86.20
2024-01-25T15:20:42.734Z,86.07
2024-01-25T15:23:11.012Z,85.47
2024-01-25T15:25:39.188Z,84.88
2024-01-25T15:28:07.532Z,84.64
2024-01-25T15:30:35.663Z,84.58
2024-01-25T15:33:06.216Z,84.37
2024-01-25T15:35:34.740Z,84.07
2024-01-25T15:38:06.844Z,84.22
2024-01-25T15:40:35.616Z,84.19
2024-01-25T15:43:04.017Z,84.04
2024-01-25T15:45:32.272Z,84.21
2024-01-25T15:48:00.633Z,84.38
2024-01-25T15:50:28.833Z,83.90
2024-01-25T15:52:56.949Z,84.41
2024-01-25T15:55:25.121Z,84.80
2024-01-25T15:57:53.348Z,84.35
2024-01-25T16:00:21.870Z,84.70
2024-01-25T16:02:50.028Z,85.10
2024-01-25T16:05:18.832Z,85.31
2024-01-25T16:07:50.035Z,85.54
2024-01-25T16:10:19.714Z,86.12
2024-01-25T16:12:48.082Z,86.50
2024-01-25T16:15:18.790Z,86.44
2024-01-25T16:17:47.409Z,86.67
2024-01-25T16:20:16.788Z,86.86
2024-01-25T16:22:44.893Z,86.38
2024-01-25T16:25:13.020Z,86.40
2024-01-25T16:27:41.174Z,86.54
2024-01-25T16:30:09.898Z,86.37
2024-01-25T16:32:38.164Z,86.52
2024-01-25T16:35:07.526Z,86.23
2024-01-25T16:37:35.769Z,86.32
2024-01-25T16:40:05.160Z,86.38
2024-01-25T16:42:33.448Z,86.37
2024-01-25T16:45:01.703Z,86.69
2024-01-25T16:47:29.827Z,86.68
2024-01-25T16:49:58.161Z,87.02
2024-01-25T16:52:26.523Z,87.35
2024-01-25T16:54:54.678Z,87.46
2024-01-25T16:57:22.832Z,87.49
2024-01-25T16:59:51.153Z,87.50
2024-01-25T17:02:20.605Z,87.73
2024-01-25T17:04:49.113Z,87.88
2024-01-25T17:07:17.599Z,88.58
2024-01-25T17:09:45.777Z,88.59
2024-01-25T17:12:16.532Z,89.40
2024-01-25T17:14:44.970Z,88.91
2024-01-25T17:17:13.113Z,89.31
2024-01-25T17:19:41.340Z,89.97
2024-01-25T17:22:09.523Z,89.70
2024-01-25T17:24:37.647Z,89.63
2024-01-25T17:27:06.087Z,89.55
2024-01-25T17:29:34.168Z,89.79
2024-01-25T17:32:02.986Z,89.82
2024-01-25T17:34:31.160Z,89.54
2024-01-25T17:36:59.967Z,89.53
2024-01-25T17:39:28.174Z,89.43
2024-01-25T17:41:56.313Z,89.19
2024-01-25T17:44:24.390Z,89.48
2024-01-25T17:46:52.485Z,89.87
2024-01-25T17:49:20.826Z,89.89
2024-01-25T17:51:49.376Z,90.09
2024-01-25T17:54:17.937Z,89.91
2024-01-25T17:56:46.802Z,90.08
2024-01-25T17:59:15.228Z,91.05
2024-01-25T18:01:43.531Z,89.98
2024-01-25T18:04:11.569Z,89.91
2024-01-25T18:06:39.757Z,90.24
2024-01-25T18:09:08.797Z,90.59
2024-01-25T18:11:37.112Z,90.83
2024-01-25T18:14:05.241Z,91.11
2024-01-25T18:16:33.273Z,91.23
2024-01-25T18:19:01.354Z,91.30
2024-01-25T18:21:31.032Z,90.82
2024-01-25T18:23:59.228Z,91.18
2024-01-25T18:26:29.388Z,91.01
2024-01-25T18:28:58.503Z,90.99
2024-01-25T18:31:27.187Z,91.18
2024-01-25T18:33:55.433Z,91.25
2024-01-25T18:36:23.675Z,91.47
2024-01-25T18:38:51.811Z,91.70
2024-01-25T18:41:19.984Z,91.88
2024-01-25T18:43:48.053Z,91.96
2024-01-25T18:46:16.232Z,91.86
2024-01-25T18:48:44.422Z,91.61
2024-01-25T18:51:12.557Z,91.27
2024-01-25T18:53:41.005Z,91.69
2024-01-25T18:56:10.155Z,91.42
2024-01-25T18:58:38.597Z,91.71
2024-01-25T19:01:07.870Z,92.18
2024-01-25T19:03:37.047Z,91.90
2024-01-25T19:06:07.142Z,92.55
2024-01-25T19:08:35.631Z,92.71
2024-01-25T19:11:03.889Z,92.59
2024-01-25T19:13:31.993Z,92.70
2024-01-25T19:16:00.173Z,92.30
2024-01-25T19:18:29.809Z,92.60
2024-01-25T19:20:58.219Z,93.68
2024-01-25T19:23:26.377Z,93.83
2024-01-25T19:25:54.485Z,93.62
2024-01-25T19:28:24.482Z,93.88
2024-01-25T19:30:52.534Z,94.28
2024-01-25T19:33:20.877Z,94.22
2024-01-25T19:35:54.073Z,94.17
2024-01-25T19:38:22.726Z,94.75
2024-01-25T19:40:51.405Z,95.30
2024-01-25T19:43:20.009Z,95.47
2024-01-25T19:45:49.445Z,95.82
2024-01-25T19:48:17.769Z,96.58
2024-01-25T19:50:46.322Z,96.40
2024-01-25T19:53:14.430Z,96.59
2024-01-25T19:55:42.555Z,97.00
2024-01-25T19:58:10.996Z,96.92
2024-01-25T20:00:39.417Z,97.18
2024-01-25T20:03:10.435Z,97.38
2024-01-25T20:05:38.898Z,97.59
2024-01-25T20:08:07.993Z,97.49
2024-01-25T20:10:36.468Z,97.93
2024-01-25T20:13:04.665Z,98.11
2024-01-25T20:15:33.049Z,98.16
2024-01-25T20:18:01.280Z,98.05
2024-01-25T20:20:38.217Z,98.28
2024-01-25T20:23:13.785Z,98.83
2024-01-25T20:25:42.626Z,99.20
2024-01-25T20:28:10.809Z,99.07
2024-01-25T20:30:40.427Z,99.39
2024-01-25T20:33:09.072Z,99.44
2024-01-25T20:35:37.334Z,99.19
2024-01-25T20:38:05.465Z,99.14
2024-01-25T20:40:34.163Z,99.14
2024-01-25T20:43:02.276Z,99.02
2024-01-25T20:45:30.486Z,98.83
2024-01-25T20:47:58.644Z,98.85
2024-01-25T20:50:34.735Z,98.85
2024-01-25T20:53:09.378Z,98.98
2024-01-25T20:55:40.508Z,98.92
2024-01-25T20:58:08.630Z,98.99
2024-01-25T21:00:37.068Z,98.68
2024-01-25T21:03:06.990Z,98.86
2024-01-25T21:05:35.488Z,98.61
2024-01-25T21:08:04.013Z,98.72
2024-01-25T21:10:32.481Z,98.55
2024-01-25T21:13:00.836Z,98.22
2024-01-25T21:15:29.271Z,98.09
2024-01-25T21:17:57.555Z,97.95
2024-01-25T21:20:25.714Z,97.72
2024-01-25T21:22:53.792Z,97.26
2024-01-25T21:25:21.997Z,96.85
2024-01-25T21:27:50.171Z,96.59
2024-01-25T21:30:18.635Z,96.60
2024-01-25T21:32:46.930Z,96.43
2024-01-25T21:35:15.237Z,96.47
2024-01-25T21:37:43.307Z,96.61
2024-01-25T21:40:11.948Z,96.56
2024-01-25T21:42:40.162Z,96.49
2024-01-25T21:45:11.381Z,96.54
2024-01-25T21:47:42.756Z,96.57
2024-01-25T21:50:11.736Z,96.28
2024-01-25T21:52:41.309Z,96.36
2024-01-25T21:55:12.357Z,96.19
2024-01-25T21:57:48.782Z,96.05
2024-01-25T22:00:18.148Z,96.05
2024-01-25T22:02:47.677Z,96.13
2024-01-25T22:05:17.847Z,96.06
2024-01-25T22:07:46.659Z,96.36
2024-01-25T22:10:14.888Z,96.40
2024-01-25T22:12:43.160Z,96.00
2024-01-25T22:15:12.228Z,95.80
2024-01-25T22:17:40.523Z,95.61
2024-01-25T22:20:09.861Z,95.47
2024-01-25T22:22:40.372Z,95.64
2024-01-25T22:25:09.750Z,95.42
2024-01-25T22:27:38.329Z,95.79
2024-01-25T22:30:08.643Z,96.11
2024-01-25T22:32:36.706Z,96.07
2024-01-25T22:35:06.061Z,96.17
2024-01-25T22:37:34.366Z,96.36
2024-01-25T22:40:02.523Z,96.30
2024-01-25T22:42:31.185Z,96.60
2024-01-25T22:44:59.355Z,96.52
2024-01-25T22:47:27.523Z,96.81
2024-01-25T22:49:55.566Z,96.73
2024-01-25T22:52:24.476Z,96.93
2024-01-25T22:54:53.007Z,97.14
2024-01-25T22:57:21.483Z,97.25
2024-01-25T22:59:50.768Z,97.25
2024-01-25T23:02:20.304Z,97.29
2024-01-25T23:04:48.346Z,97.33
2024-01-25T23:07:16.386Z,97.43
2024-01-25T23:09:44.713Z,97.53
2024-01-25T23:12:13.298Z,97.59
2024-01-25T23:14:44.649Z,97.77
2024-01-25T23:17:12.931Z,97.72
2024-01-25T23:19:41.529Z,97.79
2024-01-25T23:22:09.847Z,97.88
2024-01-25T23:24:38.044Z,98.16
2024-01-25T23:27:07.622Z,98.13
2024-01-25T23:29:35.656Z,98.20
2024-01-25T23:32:04.608Z,98.33
2024-01-25T23:34:33.720Z,98.28
2024-01-25T23:37:01.882Z,98.25
2024-01-25T23:39:30.077Z,97.92
2024-01-25T23:41:58.196Z,97.38
2024-01-25T23:44:27.001Z,96.92
2024-01-25T23:46:55.029Z,96.80
2024-01-25T23:49:23.572Z,96.60
2024-01-25T23:51:54.502Z,96.53
2024-01-25T23:54:23.318Z,96.40
2024-01-25T23:56:51.873Z,96.23
2024-01-25T23:59:20.050Z,96.17
